IBR1349 SBRJ-SBCF
Flight info
| Callsign | IBR1349 |
|---|---|
| Flight time | 0h 40m |
| Altitude | 28000 |
| Route | PUMS3C DAKDA DCT TOKUR KUGU1A |
| Aircraft | A20N/M-SDE2E3FGHIRWXY/LB1 |
Departure
| Time | 2026-04-30 19:54 |
|---|---|
| Airport | Santos Dumont Airport (SBRJ) |
Arrival
| Time | 2026-04-30 20:35 |
|---|---|
| Airport | Tancredo Neves International Airport (SBCF) |
| Time | Latitude | Longitude | Altitude | Speed | Heading |
|---|---|---|---|---|---|
| 2026-04-30 19:54 | -22.85274 | -42.83608 | 13610 ft | 362 kts | 356° |
| 2026-04-30 19:54 | -22.82753 | -42.83880 | 14176 ft | 363 kts | 349° |
| 2026-04-30 19:54 | -22.80253 | -42.84315 | 14691 ft | 366 kts | 347° |
| 2026-04-30 19:55 | -22.77731 | -42.84779 | 15202 ft | 369 kts | 347° |
| 2026-04-30 19:55 | -22.75188 | -42.85217 | 15713 ft | 373 kts | 347° |
| 2026-04-30 19:55 | -22.72604 | -42.85642 | 16247 ft | 376 kts | 347° |
| 2026-04-30 19:55 | -22.70008 | -42.86073 | 16773 ft | 379 kts | 347° |
| 2026-04-30 19:56 | -22.67392 | -42.86514 | 17278 ft | 382 kts | 347° |
| 2026-04-30 19:56 | -22.64756 | -42.86957 | 17755 ft | 385 kts | 347° |
| 2026-04-30 19:56 | -22.62093 | -42.87402 | 18225 ft | 388 kts | 346° |
| 2026-04-30 19:56 | -22.59454 | -42.87842 | 18631 ft | 390 kts | 346° |
| 2026-04-30 19:57 | -22.56755 | -42.88291 | 19006 ft | 393 kts | 346° |
| 2026-04-30 19:57 | -22.54046 | -42.88741 | 19393 ft | 395 kts | 347° |
| 2026-04-30 19:57 | -22.51327 | -42.89193 | 19775 ft | 397 kts | 347° |
| 2026-04-30 19:57 | -22.48583 | -42.89648 | 20135 ft | 399 kts | 347° |
| 2026-04-30 19:58 | -22.45828 | -42.90106 | 20504 ft | 401 kts | 347° |
| 2026-04-30 19:58 | -22.43063 | -42.90564 | 20903 ft | 403 kts | 347° |
| 2026-04-30 19:58 | -22.37104 | -42.91552 | 21774 ft | 408 kts | 347° |
| 2026-04-30 19:59 | -22.34284 | -42.92019 | 22161 ft | 411 kts | 347° |
| 2026-04-30 19:59 | -22.31446 | -42.92489 | 22570 ft | 413 kts | 347° |
| 2026-04-30 19:59 | -22.25729 | -42.93435 | 23383 ft | 419 kts | 347° |
| 2026-04-30 20:00 | -22.22837 | -42.93913 | 23790 ft | 421 kts | 347° |
| 2026-04-30 20:00 | -22.19938 | -42.94393 | 24152 ft | 424 kts | 347° |
| 2026-04-30 20:00 | -22.17008 | -42.94877 | 24511 ft | 426 kts | 347° |
| 2026-04-30 20:00 | -22.14068 | -42.95362 | 24874 ft | 428 kts | 347° |
| 2026-04-30 20:01 | -22.08180 | -42.96332 | 25578 ft | 433 kts | 347° |
| 2026-04-30 20:01 | -22.05194 | -42.96825 | 25910 ft | 435 kts | 347° |
| 2026-04-30 20:01 | -22.02196 | -42.97319 | 26240 ft | 437 kts | 347° |
| 2026-04-30 20:02 | -21.96134 | -42.98317 | 26919 ft | 442 kts | 347° |
| 2026-04-30 20:02 | -21.93092 | -42.98818 | 27245 ft | 444 kts | 347° |
| 2026-04-30 20:03 | -21.86948 | -42.99829 | 27881 ft | 448 kts | 347° |
| 2026-04-30 20:03 | -21.83862 | -43.00336 | 28037 ft | 449 kts | 347° |
| 2026-04-30 20:03 | -21.77800 | -43.01327 | 28041 ft | 434 kts | 347° |
| 2026-04-30 20:04 | -21.71843 | -43.02304 | 28050 ft | 432 kts | 347° |
| 2026-04-30 20:05 | -21.62920 | -43.03769 | 28045 ft | 432 kts | 347° |
| 2026-04-30 20:05 | -21.54020 | -43.05226 | 28046 ft | 433 kts | 347° |
| 2026-04-30 20:06 | -21.48063 | -43.06201 | 28044 ft | 433 kts | 347° |
| 2026-04-30 20:06 | -21.42100 | -43.07175 | 28041 ft | 433 kts | 347° |
| 2026-04-30 20:07 | -21.36141 | -43.08148 | 28046 ft | 433 kts | 347° |
| 2026-04-30 20:08 | -21.27190 | -43.09609 | 28044 ft | 433 kts | 347° |
| 2026-04-30 20:08 | -21.21219 | -43.10583 | 28047 ft | 434 kts | 347° |
| 2026-04-30 20:09 | -21.15255 | -43.11554 | 28042 ft | 434 kts | 347° |
| 2026-04-30 20:09 | -21.06326 | -43.13007 | 28049 ft | 434 kts | 347° |
| 2026-04-30 20:10 | -20.97369 | -43.14464 | 28056 ft | 434 kts | 348° |
| 2026-04-30 20:11 | -20.88382 | -43.15923 | 28057 ft | 434 kts | 348° |
| 2026-04-30 20:11 | -20.82405 | -43.16931 | 28061 ft | 433 kts | 344° |
| 2026-04-30 20:12 | -20.76776 | -43.19107 | 28060 ft | 429 kts | 333° |
| 2026-04-30 20:12 | -20.74050 | -43.20415 | 28059 ft | 430 kts | 332° |
| 2026-04-30 20:13 | -20.68630 | -43.23028 | 28065 ft | 431 kts | 333° |
| 2026-04-30 20:13 | -20.63129 | -43.25665 | 28062 ft | 431 kts | 333° |
| 2026-04-30 20:14 | -20.57680 | -43.28268 | 28065 ft | 431 kts | 333° |
| 2026-04-30 20:14 | -20.53122 | -43.30443 | 28069 ft | 431 kts | 333° |
| 2026-04-30 20:15 | -20.47665 | -43.33043 | 27723 ft | 423 kts | 333° |
| 2026-04-30 20:15 | -20.44999 | -43.34312 | 27263 ft | 418 kts | 333° |
| 2026-04-30 20:15 | -20.44875 | -43.34371 | 27232 ft | 418 kts | 333° |
| 2026-04-30 20:17 | -20.42246 | -43.35602 | 26641 ft | 418 kts | 335° |
| 2026-04-30 20:17 | -20.39578 | -43.36842 | 26079 ft | 417 kts | 335° |
| 2026-04-30 20:18 | -20.36932 | -43.38080 | 25548 ft | 415 kts | 334° |
| 2026-04-30 20:18 | -20.34325 | -43.39306 | 25391 ft | 403 kts | 334° |
| 2026-04-30 20:18 | -20.31794 | -43.40501 | 25259 ft | 391 kts | 334° |
| 2026-04-30 20:18 | -20.29344 | -43.41661 | 25122 ft | 379 kts | 334° |
| 2026-04-30 20:19 | -20.26945 | -43.42798 | 24718 ft | 377 kts | 334° |
| 2026-04-30 20:19 | -20.24548 | -43.43936 | 24205 ft | 378 kts | 334° |
| 2026-04-30 20:19 | -20.22146 | -43.45076 | 23743 ft | 378 kts | 334° |
| 2026-04-30 20:19 | -20.19749 | -43.46213 | 23257 ft | 376 kts | 334° |
| 2026-04-30 20:20 | -20.17389 | -43.47332 | 22999 ft | 367 kts | 334° |
| 2026-04-30 20:20 | -20.15048 | -43.48441 | 22376 ft | 369 kts | 335° |
| 2026-04-30 20:20 | -20.12731 | -43.49539 | 21936 ft | 366 kts | 335° |
| 2026-04-30 20:20 | -20.10428 | -43.50630 | 21627 ft | 359 kts | 335° |
| 2026-04-30 20:21 | -20.08141 | -43.51713 | 21024 ft | 360 kts | 335° |
| 2026-04-30 20:21 | -20.05873 | -43.52787 | 20533 ft | 354 kts | 335° |
| 2026-04-30 20:21 | -20.03624 | -43.53851 | 20110 ft | 351 kts | 335° |
| 2026-04-30 20:21 | -20.01401 | -43.54903 | 19683 ft | 349 kts | 335° |
| 2026-04-30 20:22 | -19.99188 | -43.55950 | 19263 ft | 347 kts | 335° |
| 2026-04-30 20:22 | -19.96993 | -43.56988 | 18837 ft | 345 kts | 335° |
| 2026-04-30 20:22 | -19.94809 | -43.58020 | 18417 ft | 342 kts | 335° |
| 2026-04-30 20:22 | -19.93026 | -43.58863 | 18022 ft | 341 kts | 335° |
| 2026-04-30 20:23 | -19.90914 | -43.59861 | 17610 ft | 338 kts | 335° |
| 2026-04-30 20:23 | -19.88770 | -43.60873 | 17200 ft | 334 kts | 335° |
| 2026-04-30 20:23 | -19.86662 | -43.61869 | 16791 ft | 331 kts | 335° |
| 2026-04-30 20:23 | -19.84667 | -43.63090 | 16352 ft | 330 kts | 323° |
| 2026-04-30 20:24 | -19.82997 | -43.64529 | 16019 ft | 328 kts | 319° |
| 2026-04-30 20:24 | -19.81250 | -43.66150 | 15617 ft | 328 kts | 319° |
| 2026-04-30 20:24 | -19.79568 | -43.67727 | 15226 ft | 326 kts | 319° |
| 2026-04-30 20:24 | -19.77866 | -43.69319 | 14831 ft | 325 kts | 319° |
| 2026-04-30 20:25 | -19.74477 | -43.72477 | 14042 ft | 323 kts | 319° |
| 2026-04-30 20:25 | -19.72793 | -43.74042 | 13619 ft | 322 kts | 319° |
| 2026-04-30 20:26 | -19.69443 | -43.77149 | 12835 ft | 318 kts | 319° |
| 2026-04-30 20:26 | -19.66122 | -43.80228 | 12065 ft | 315 kts | 319° |
| 2026-04-30 20:26 | -19.64480 | -43.81749 | 11678 ft | 314 kts | 319° |
| 2026-04-30 20:27 | -19.61202 | -43.84785 | 10916 ft | 311 kts | 320° |
| 2026-04-30 20:27 | -19.57958 | -43.87786 | 10214 ft | 307 kts | 320° |
| 2026-04-30 20:28 | -19.54733 | -43.90771 | 9368 ft | 306 kts | 320° |
| 2026-04-30 20:28 | -19.51573 | -43.93692 | 8603 ft | 296 kts | 320° |
| 2026-04-30 20:29 | -19.48490 | -43.96538 | 7874 ft | 294 kts | 320° |
| 2026-04-30 20:30 | -19.44410 | -44.01267 | 6442 ft | 297 kts | 283° |
| 2026-04-30 20:30 | -19.46986 | -44.06140 | 5373 ft | 249 kts | 204° |
| 2026-04-30 20:31 | -19.51470 | -44.06764 | 4907 ft | 192 kts | 165° |
| 2026-04-30 20:32 | -19.54593 | -44.04995 | 4387 ft | 159 kts | 137° |
| 2026-04-30 20:32 | -19.56258 | -44.03458 | 4309 ft | 158 kts | 137° |
| 2026-04-30 20:33 | -19.57072 | -44.02711 | 4106 ft | 150 kts | 136° |
| 2026-04-30 20:33 | -19.58615 | -44.01280 | 3735 ft | 148 kts | 136° |
| 2026-04-30 20:33 | -19.59382 | -44.00568 | 3562 ft | 148 kts | 136° |
| 2026-04-30 20:34 | -19.60936 | -43.99127 | 3206 ft | 150 kts | 137° |
| 2026-04-30 20:34 | -19.62523 | -43.97677 | 2849 ft | 143 kts | 136° |
| 2026-04-30 20:35 | -19.63197 | -43.97039 | 2820 ft | 105 kts | 139° |
| 2026-04-30 20:35 | -19.63519 | -43.96739 | 2817 ft | 26 kts | 130° |
| 2026-04-30 20:35 | -19.63607 | -43.96537 | 2817 ft | 0 kts | 109° |
| 2026-04-30 20:36 | -19.63621 | -43.96494 | 2818 ft | 9 kts | 110° |
| 2026-04-30 20:37 | -19.63642 | -43.96412 | 2818 ft | 14 kts | 86° |
| 2026-04-30 20:37 | -19.63566 | -43.96338 | 2818 ft | 18 kts | 10° |
| 2026-04-30 20:37 | -19.63451 | -43.96323 | 2818 ft | 8 kts | 39° |
| 2026-04-30 20:37 | -19.63400 | -43.96295 | 2819 ft | 9 kts | 27° |
| 2026-04-30 20:38 | -19.63397 | -43.96293 | 2819 ft | 0 kts | 27° |